sensor_id;sensor_type;location;lat;lon;timestamp;pressure;altitude;pressure_sealevel;temperature;humidity
39613;BME280;25303;48.896;13.342;2022-12-31T00:01:13;92855.81;;;5.37;80.20
39613;BME280;25303;48.896;13.342;2022-12-31T00:03:57;92862.19;;;5.42;81.28
39613;BME280;25303;48.896;13.342;2022-12-31T00:06:40;92865.84;;;5.50;81.17
39613;BME280;25303;48.896;13.342;2022-12-31T00:09:24;92851.63;;;5.57;80.53
39613;BME280;25303;48.896;13.342;2022-12-31T00:12:07;92857.19;;;5.62;80.17
39613;BME280;25303;48.896;13.342;2022-12-31T00:14:49;92854.19;;;5.57;80.71
39613;BME280;25303;48.896;13.342;2022-12-31T00:17:32;92848.59;;;5.63;80.11
39613;BME280;25303;48.896;13.342;2022-12-31T00:20:15;92855.06;;;5.67;79.96
39613;BME280;25303;48.896;13.342;2022-12-31T00:22:59;92859.88;;;5.60;80.56
39613;BME280;25303;48.896;13.342;2022-12-31T00:25:43;92858.56;;;5.66;80.17
39613;BME280;25303;48.896;13.342;2022-12-31T00:28:26;92859.25;;;5.68;80.01
39613;BME280;25303;48.896;13.342;2022-12-31T00:31:11;92860.28;;;5.66;80.16
39613;BME280;25303;48.896;13.342;2022-12-31T00:33:56;92870.00;;;5.72;80.11
39613;BME280;25303;48.896;13.342;2022-12-31T00:36:39;92863.81;;;5.74;80.45
39613;BME280;25303;48.896;13.342;2022-12-31T00:39:23;92878.25;;;5.85;80.62
39613;BME280;25303;48.896;13.342;2022-12-31T00:42:07;92877.63;;;5.93;80.20
39613;BME280;25303;48.896;13.342;2022-12-31T00:44:50;92882.22;;;5.99;80.11
39613;BME280;25303;48.896;13.342;2022-12-31T00:47:33;92886.06;;;6.05;79.97
39613;BME280;25303;48.896;13.342;2022-12-31T00:50:15;92880.94;;;6.05;79.80
39613;BME280;25303;48.896;13.342;2022-12-31T00:52:58;92887.53;;;6.07;79.87
39613;BME280;25303;48.896;13.342;2022-12-31T00:55:41;92887.00;;;6.04;79.80
39613;BME280;25303;48.896;13.342;2022-12-31T00:58:26;92894.66;;;6.04;79.59
39613;BME280;25303;48.896;13.342;2022-12-31T01:01:09;92894.91;;;6.01;79.76
39613;BME280;25303;48.896;13.342;2022-12-31T01:03:54;92899.13;;;5.90;80.27
39613;BME280;25303;48.896;13.342;2022-12-31T01:06:38;92907.31;;;5.84;80.43
39613;BME280;25303;48.896;13.342;2022-12-31T01:09:21;92919.13;;;5.85;80.12
39613;BME280;25303;48.896;13.342;2022-12-31T01:12:04;92910.25;;;5.80;80.39
39613;BME280;25303;48.896;13.342;2022-12-31T01:14:48;92915.09;;;5.83;80.74
39613;BME280;25303;48.896;13.342;2022-12-31T01:17:31;92910.97;;;5.91;80.99
39613;BME280;25303;48.896;13.342;2022-12-31T01:20:14;92918.72;;;6.01;80.82
39613;BME280;25303;48.896;13.342;2022-12-31T01:22:57;92927.38;;;6.10;80.97
39613;BME280;25303;48.896;13.342;2022-12-31T01:25:40;92911.41;;;6.18;81.33
39613;BME280;25303;48.896;13.342;2022-12-31T01:28:23;92912.63;;;6.23;81.51
39613;BME280;25303;48.896;13.342;2022-12-31T01:31:09;92912.66;;;6.33;81.15
39613;BME280;25303;48.896;13.342;2022-12-31T01:33:52;92918.06;;;6.40;80.96
39613;BME280;25303;48.896;13.342;2022-12-31T01:36:36;92914.31;;;6.44;80.92
39613;BME280;25303;48.896;13.342;2022-12-31T01:39:19;92923.22;;;6.50;80.98
39613;BME280;25303;48.896;13.342;2022-12-31T01:42:02;92921.34;;;6.52;80.91
39613;BME280;25303;48.896;13.342;2022-12-31T01:44:51;92924.44;;;6.56;80.62
39613;BME280;25303;48.896;13.342;2022-12-31T01:47:38;92928.47;;;6.58;80.71
39613;BME280;25303;48.896;13.342;2022-12-31T01:50:27;92927.00;;;6.56;81.21
39613;BME280;25303;48.896;13.342;2022-12-31T01:53:10;92925.66;;;6.61;81.12
39613;BME280;25303;48.896;13.342;2022-12-31T01:55:56;92930.78;;;6.61;80.97
39613;BME280;25303;48.896;13.342;2022-12-31T01:58:43;92926.47;;;6.62;81.10
39613;BME280;25303;48.896;13.342;2022-12-31T02:01:29;92932.13;;;6.65;80.75
39613;BME280;25303;48.896;13.342;2022-12-31T02:04:15;92925.69;;;6.71;81.16
39613;BME280;25303;48.896;13.342;2022-12-31T02:07:00;92932.03;;;6.77;80.82
39613;BME280;25303;48.896;13.342;2022-12-31T02:09:43;92927.44;;;6.80;80.86
39613;BME280;25303;48.896;13.342;2022-12-31T02:12:26;92933.13;;;6.84;80.87
39613;BME280;25303;48.896;13.342;2022-12-31T02:15:09;92925.31;;;6.86;80.63
39613;BME280;25303;48.896;13.342;2022-12-31T02:17:56;92951.56;;;6.88;80.56
39613;BME280;25303;48.896;13.342;2022-12-31T02:21:14;92940.50;;;6.87;80.61
39613;BME280;25303;48.896;13.342;2022-12-31T02:24:31;92938.63;;;6.89;80.68
39613;BME280;25303;48.896;13.342;2022-12-31T02:27:26;92945.25;;;6.92;80.55
39613;BME280;25303;48.896;13.342;2022-12-31T02:30:18;92940.13;;;6.92;80.76
39613;BME280;25303;48.896;13.342;2022-12-31T02:33:10;92940.38;;;6.79;81.28
39613;BME280;25303;48.896;13.342;2022-12-31T02:35:57;92935.41;;;6.87;81.25
39613;BME280;25303;48.896;13.342;2022-12-31T02:38:44;92932.47;;;6.92;81.33
39613;BME280;25303;48.896;13.342;2022-12-31T02:41:28;92926.69;;;6.99;81.35
39613;BME280;25303;48.896;13.342;2022-12-31T02:44:30;92926.81;;;7.08;81.85
39613;BME280;25303;48.896;13.342;2022-12-31T02:47:25;92935.31;;;7.18;81.70
39613;BME280;25303;48.896;13.342;2022-12-31T02:50:22;92931.53;;;7.22;81.33
39613;BME280;25303;48.896;13.342;2022-12-31T02:53:19;92933.03;;;7.25;81.33
39613;BME280;25303;48.896;13.342;2022-12-31T02:56:09;92931.00;;;7.28;81.11
39613;BME280;25303;48.896;13.342;2022-12-31T02:59:01;92930.75;;;7.32;81.04
39613;BME280;25303;48.896;13.342;2022-12-31T03:02:05;92934.66;;;7.36;81.03
39613;BME280;25303;48.896;13.342;2022-12-31T03:05:00;92941.09;;;7.40;81.03
39613;BME280;25303;48.896;13.342;2022-12-31T03:07:44;92939.09;;;7.43;81.11
39613;BME280;25303;48.896;13.342;2022-12-31T03:10:27;92943.94;;;7.47;81.04
39613;BME280;25303;48.896;13.342;2022-12-31T03:13:10;92943.00;;;7.48;81.07
39613;BME280;25303;48.896;13.342;2022-12-31T03:15:52;92958.78;;;7.53;80.95
39613;BME280;25303;48.896;13.342;2022-12-31T03:18:35;92951.88;;;7.53;80.88
39613;BME280;25303;48.896;13.342;2022-12-31T03:21:33;92950.00;;;7.55;80.75
39613;BME280;25303;48.896;13.342;2022-12-31T03:24:33;92958.50;;;7.56;80.72
39613;BME280;25303;48.896;13.342;2022-12-31T03:27:34;92955.13;;;7.55;80.67
39613;BME280;25303;48.896;13.342;2022-12-31T03:30:18;92959.28;;;7.56;80.82
39613;BME280;25303;48.896;13.342;2022-12-31T03:33:02;92972.78;;;7.58;80.87
39613;BME280;25303;48.896;13.342;2022-12-31T03:35:46;92969.28;;;7.59;81.04
39613;BME280;25303;48.896;13.342;2022-12-31T03:38:31;92974.28;;;7.61;80.91
39613;BME280;25303;48.896;13.342;2022-12-31T03:41:13;92976.28;;;7.57;81.43
39613;BME280;25303;48.896;13.342;2022-12-31T03:43:56;92986.81;;;7.64;81.18
39613;BME280;25303;48.896;13.342;2022-12-31T03:46:39;92985.75;;;7.67;80.99
39613;BME280;25303;48.896;13.342;2022-12-31T03:49:22;92985.75;;;7.67;80.71
39613;BME280;25303;48.896;13.342;2022-12-31T03:52:05;92987.38;;;7.68;80.80
39613;BME280;25303;48.896;13.342;2022-12-31T03:54:50;92990.88;;;7.67;80.74
39613;BME280;25303;48.896;13.342;2022-12-31T03:57:33;92986.53;;;7.67;80.82
39613;BME280;25303;48.896;13.342;2022-12-31T04:00:18;92985.59;;;7.68;80.65
39613;BME280;25303;48.896;13.342;2022-12-31T04:03:02;92985.59;;;7.68;80.71
39613;BME280;25303;48.896;13.342;2022-12-31T04:05:51;92990.88;;;7.67;80.90
39613;BME280;25303;48.896;13.342;2022-12-31T04:08:34;92994.09;;;7.69;80.82
39613;BME280;25303;48.896;13.342;2022-12-31T04:11:18;93000.03;;;7.69;80.82
39613;BME280;25303;48.896;13.342;2022-12-31T04:14:01;92997.63;;;7.68;80.72
39613;BME280;25303;48.896;13.342;2022-12-31T04:16:44;92996.94;;;7.66;80.47
39613;BME280;25303;48.896;13.342;2022-12-31T04:19:27;93000.03;;;7.59;80.44
39613;BME280;25303;48.896;13.342;2022-12-31T04:22:10;93010.28;;;7.59;80.44
39613;BME280;25303;48.896;13.342;2022-12-31T04:24:53;93003.69;;;7.57;80.47
39613;BME280;25303;48.896;13.342;2022-12-31T04:27:38;93009.75;;;7.56;80.45
39613;BME280;25303;48.896;13.342;2022-12-31T04:30:22;93006.34;;;7.55;80.36
39613;BME280;25303;48.896;13.342;2022-12-31T04:33:05;93014.03;;;7.55;80.43
39613;BME280;25303;48.896;13.342;2022-12-31T04:35:48;93015.91;;;7.53;80.50
39613;BME280;25303;48.896;13.342;2022-12-31T04:38:31;93017.00;;;7.51;80.60
39613;BME280;25303;48.896;13.342;2022-12-31T04:41:13;93016.75;;;7.44;80.95
39613;BME280;25303;48.896;13.342;2022-12-31T04:44:01;93022.41;;;7.48;80.82
39613;BME280;25303;48.896;13.342;2022-12-31T04:46:44;93024.97;;;7.48;80.74
39613;BME280;25303;48.896;13.342;2022-12-31T04:49:27;93031.00;;;7.37;80.68
39613;BME280;25303;48.896;13.342;2022-12-31T04:52:10;93018.47;;;7.24;80.90
39613;BME280;25303;48.896;13.342;2022-12-31T04:54:53;93036.66;;;7.21;80.82
39613;BME280;25303;48.896;13.342;2022-12-31T04:57:36;93040.13;;;7.10;80.98
39613;BME280;25303;48.896;13.342;2022-12-31T05:00:20;93039.84;;;7.03;81.35
39613;BME280;25303;48.896;13.342;2022-12-31T05:03:03;93039.66;;;6.85;82.58
39613;BME280;25303;48.896;13.342;2022-12-31T05:05:46;93043.97;;;6.84;82.70
39613;BME280;25303;48.896;13.342;2022-12-31T05:08:31;93045.72;;;6.84;82.86
39613;BME280;25303;48.896;13.342;2022-12-31T05:11:14;93052.50;;;6.95;82.52
39613;BME280;25303;48.896;13.342;2022-12-31T05:13:58;93054.78;;;6.98;82.38
39613;BME280;25303;48.896;13.342;2022-12-31T05:16:42;93060.19;;;7.05;82.32
39613;BME280;25303;48.896;13.342;2022-12-31T05:19:25;93051.69;;;7.04;82.57
39613;BME280;25303;48.896;13.342;2022-12-31T05:22:08;93059.13;;;7.07;82.39
39613;BME280;25303;48.896;13.342;2022-12-31T05:25:08;93068.28;;;7.10;83.06
39613;BME280;25303;48.896;13.342;2022-12-31T05:27:51;93073.94;;;7.13;82.62
39613;BME280;25303;48.896;13.342;2022-12-31T05:30:34;93074.88;;;7.12;83.00
39613;BME280;25303;48.896;13.342;2022-12-31T05:33:19;93079.75;;;7.15;82.69
39613;BME280;25303;48.896;13.342;2022-12-31T05:36:04;93073.69;;;7.17;82.69
39613;BME280;25303;48.896;13.342;2022-12-31T05:38:47;93066.94;;;7.15;83.04
39613;BME280;25303;48.896;13.342;2022-12-31T05:41:29;93077.38;;;7.24;82.74
39613;BME280;25303;48.896;13.342;2022-12-31T05:44:12;93064.78;;;7.11;84.12
39613;BME280;25303;48.896;13.342;2022-12-31T05:46:55;93065.06;;;7.18;84.19
39613;BME280;25303;48.896;13.342;2022-12-31T05:49:39;93063.66;;;7.35;83.74
39613;BME280;25303;48.896;13.342;2022-12-31T05:52:22;93060.13;;;7.45;83.48
39613;BME280;25303;48.896;13.342;2022-12-31T05:55:06;93072.97;;;7.55;83.05
39613;BME280;25303;48.896;13.342;2022-12-31T05:57:49;93088.75;;;7.60;83.00
39613;BME280;25303;48.896;13.342;2022-12-31T06:00:31;93083.91;;;7.57;83.66
39613;BME280;25303;48.896;13.342;2022-12-31T06:03:14;93094.03;;;7.69;83.24
39613;BME280;25303;48.896;13.342;2022-12-31T06:06:00;93091.47;;;7.69;83.04
39613;BME280;25303;48.896;13.342;2022-12-31T06:08:42;93087.94;;;7.70;82.96
39613;BME280;25303;48.896;13.342;2022-12-31T06:11:25;93077.59;;;7.71;82.97
39613;BME280;25303;48.896;13.342;2022-12-31T06:14:08;93086.75;;;7.74;82.93
39613;BME280;25303;48.896;13.342;2022-12-31T06:16:51;93090.53;;;7.80;82.89
39613;BME280;25303;48.896;13.342;2022-12-31T06:19:34;93102.41;;;7.81;83.61
39613;BME280;25303;48.896;13.342;2022-12-31T06:22:18;93099.44;;;7.85;83.09
39613;BME280;25303;48.896;13.342;2022-12-31T06:25:01;93097.53;;;7.87;82.79
39613;BME280;25303;48.896;13.342;2022-12-31T06:27:44;93095.41;;;7.93;82.78
39613;BME280;25303;48.896;13.342;2022-12-31T06:30:27;93104.56;;;7.95;82.77
39613;BME280;25303;48.896;13.342;2022-12-31T06:33:10;93102.69;;;7.97;82.54
39613;BME280;25303;48.896;13.342;2022-12-31T06:35:54;93104.72;;;7.94;82.98
39613;BME280;25303;48.896;13.342;2022-12-31T06:38:40;93106.47;;;7.93;83.29
39613;BME280;25303;48.896;13.342;2022-12-31T06:41:23;93109.41;;;7.98;83.03
39613;BME280;25303;48.896;13.342;2022-12-31T06:44:06;93112.53;;;7.92;83.24
39613;BME280;25303;48.896;13.342;2022-12-31T06:46:49;93118.88;;;7.98;83.05
39613;BME280;25303;48.896;13.342;2022-12-31T06:49:32;93112.25;;;7.95;82.83
39613;BME280;25303;48.896;13.342;2022-12-31T06:52:15;93105.38;;;7.96;83.00
39613;BME280;25303;48.896;13.342;2022-12-31T06:55:00;93116.44;;;7.96;82.90
39613;BME280;25303;48.896;13.342;2022-12-31T06:57:43;93104.16;;;7.90;83.00
39613;BME280;25303;48.896;13.342;2022-12-31T07:00:27;93102.13;;;7.84;83.58
39613;BME280;25303;48.896;13.342;2022-12-31T07:03:20;93114.53;;;7.88;83.31
39613;BME280;25303;48.896;13.342;2022-12-31T07:06:08;93121.97;;;7.91;83.11
39613;BME280;25303;48.896;13.342;2022-12-31T07:08:57;93111.56;;;7.73;83.57
39613;BME280;25303;48.896;13.342;2022-12-31T07:11:53;93123.03;;;7.79;84.24
39613;BME280;25303;48.896;13.342;2022-12-31T07:14:43;93132.47;;;7.88;83.42
39613;BME280;25303;48.896;13.342;2022-12-31T07:17:31;93133.84;;;7.93;83.08
39613;BME280;25303;48.896;13.342;2022-12-31T07:20:18;93128.16;;;7.79;83.85
39613;BME280;25303;48.896;13.342;2022-12-31T07:23:01;93127.50;;;7.87;83.51
39613;BME280;25303;48.896;13.342;2022-12-31T07:25:51;93132.75;;;7.95;83.33
39613;BME280;25303;48.896;13.342;2022-12-31T07:28:46;93133.59;;;7.96;83.58
39613;BME280;25303;48.896;13.342;2022-12-31T07:31:45;93141.81;;;7.99;83.66
39613;BME280;25303;48.896;13.342;2022-12-31T07:34:37;93131.72;;;8.08;83.32
39613;BME280;25303;48.896;13.342;2022-12-31T07:37:29;93142.66;;;8.10;83.34
39613;BME280;25303;48.896;13.342;2022-12-31T07:40:18;93139.66;;;8.14;82.95
39613;BME280;25303;48.896;13.342;2022-12-31T07:43:11;93151.81;;;8.22;83.20
39613;BME280;25303;48.896;13.342;2022-12-31T07:46:04;93141.81;;;8.19;83.50
39613;BME280;25303;48.896;13.342;2022-12-31T07:48:49;93154.81;;;8.27;83.14
39613;BME280;25303;48.896;13.342;2022-12-31T07:51:32;93151.00;;;8.31;83.02
39613;BME280;25303;48.896;13.342;2022-12-31T07:54:16;93157.34;;;8.17;83.78
39613;BME280;25303;48.896;13.342;2022-12-31T07:56:59;93162.34;;;8.29;83.39
39613;BME280;25303;48.896;13.342;2022-12-31T08:00:00;93169.78;;;8.32;83.37
39613;BME280;25303;48.896;13.342;2022-12-31T08:03:03;93172.06;;;8.35;82.88
39613;BME280;25303;48.896;13.342;2022-12-31T08:05:52;93174.09;;;8.31;82.80
39613;BME280;25303;48.896;13.342;2022-12-31T08:08:47;93179.59;;;8.07;84.20
39613;BME280;25303;48.896;13.342;2022-12-31T08:11:37;93181.38;;;8.06;84.61
39613;BME280;25303;48.896;13.342;2022-12-31T08:14:23;93191.06;;;8.13;84.22
39613;BME280;25303;48.896;13.342;2022-12-31T08:17:10;93177.88;;;8.17;84.08
39613;BME280;25303;48.896;13.342;2022-12-31T08:19:56;93177.88;;;8.27;83.46
39613;BME280;25303;48.896;13.342;2022-12-31T08:23:09;93190.31;;;8.32;83.23
39613;BME280;25303;48.896;13.342;2022-12-31T08:26:05;93177.22;;;8.35;82.82
39613;BME280;25303;48.896;13.342;2022-12-31T08:28:58;93174.50;;;8.36;82.71
39613;BME280;25303;48.896;13.342;2022-12-31T08:31:49;93188.78;;;8.39;82.70
39613;BME280;25303;48.896;13.342;2022-12-31T08:34:42;93189.75;;;8.38;82.83
39613;BME280;25303;48.896;13.342;2022-12-31T08:37:36;93191.50;;;8.38;83.04
39613;BME280;25303;48.896;13.342;2022-12-31T08:40:24;93202.97;;;8.43;83.03
39613;BME280;25303;48.896;13.342;2022-12-31T08:43:20;93200.41;;;8.24;84.58
39613;BME280;25303;48.896;13.342;2022-12-31T08:46:16;93202.31;;;8.41;84.11
39613;BME280;25303;48.896;13.342;2022-12-31T08:49:01;93205.44;;;8.55;83.41
39613;BME280;25303;48.896;13.342;2022-12-31T08:51:44;93208.94;;;8.63;82.95
39613;BME280;25303;48.896;13.342;2022-12-31T08:54:29;93209.63;;;8.56;83.15
39613;BME280;25303;48.896;13.342;2022-12-31T08:57:18;93212.06;;;8.67;82.72
39613;BME280;25303;48.896;13.342;2022-12-31T09:00:08;93223.53;;;8.73;82.47
39613;BME280;25303;48.896;13.342;2022-12-31T09:03:16;93216.78;;;8.72;82.34
39613;BME280;25303;48.896;13.342;2022-12-31T09:06:09;93221.78;;;8.73;82.88
39613;BME280;25303;48.896;13.342;2022-12-31T09:08:59;93221.66;;;8.85;82.73
39613;BME280;25303;48.896;13.342;2022-12-31T09:11:59;93226.09;;;8.92;82.49
39613;BME280;25303;48.896;13.342;2022-12-31T09:14:47;93220.03;;;8.93;82.54
39613;BME280;25303;48.896;13.342;2022-12-31T09:17:42;93221.22;;;9.09;82.17
39613;BME280;25303;48.896;13.342;2022-12-31T09:20:28;93226.59;;;9.16;81.85
39613;BME280;25303;48.896;13.342;2022-12-31T09:23:24;93231.84;;;9.24;81.56
39613;BME280;25303;48.896;13.342;2022-12-31T09:26:14;93227.91;;;9.30;81.14
39613;BME280;25303;48.896;13.342;2022-12-31T09:29:10;93226.28;;;9.28;81.13
39613;BME280;25303;48.896;13.342;2022-12-31T09:32:02;93226.16;;;9.30;80.85
39613;BME280;25303;48.896;13.342;2022-12-31T09:34:53;93217.28;;;9.05;81.36
39613;BME280;25303;48.896;13.342;2022-12-31T09:37:42;93212.56;;;9.10;80.49
39613;BME280;25303;48.896;13.342;2022-12-31T09:40:45;93212.91;;;9.25;80.25
39613;BME280;25303;48.896;13.342;2022-12-31T09:50:31;93221.06;;;9.58;79.92
39613;BME280;25303;48.896;13.342;2022-12-31T09:53:28;93193.03;;;9.27;81.21
39613;BME280;25303;48.896;13.342;2022-12-31T09:56:16;93222.81;;;9.57;80.45
39613;BME280;25303;48.896;13.342;2022-12-31T09:59:05;93207.53;;;9.56;80.72
39613;BME280;25303;48.896;13.342;2022-12-31T10:01:55;93203.13;;;9.76;80.43
39613;BME280;25303;48.896;13.342;2022-12-31T10:04:53;93217.53;;;9.87;80.28
39613;BME280;25303;48.896;13.342;2022-12-31T10:07:48;93208.53;;;10.01;80.15
39613;BME280;25303;48.896;13.342;2022-12-31T10:10:40;93215.91;;;10.14;80.30
39613;BME280;25303;48.896;13.342;2022-12-31T10:13:43;93219.78;;;10.18;80.16
39613;BME280;25303;48.896;13.342;2022-12-31T10:16:47;93202.94;;;10.33;78.77
39613;BME280;25303;48.896;13.342;2022-12-31T10:19:50;93200.66;;;10.48;78.32
39613;BME280;25303;48.896;13.342;2022-12-31T10:22:53;93222.56;;;10.71;78.56
39613;BME280;25303;48.896;13.342;2022-12-31T10:26:08;93190.19;;;10.86;76.33
39613;BME280;25303;48.896;13.342;2022-12-31T10:28:54;93196.97;;;11.14;76.90
39613;BME280;25303;48.896;13.342;2022-12-31T10:31:47;93192.94;;;11.37;76.55
39613;BME280;25303;48.896;13.342;2022-12-31T10:34:46;93180.16;;;11.62;75.77
39613;BME280;25303;48.896;13.342;2022-12-31T10:37:36;93201.56;;;11.89;75.97
39613;BME280;25303;48.896;13.342;2022-12-31T10:40:38;93206.94;;;12.04;74.55
39613;BME280;25303;48.896;13.342;2022-12-31T10:46:56;93196.19;;;12.34;72.86
39613;BME280;25303;48.896;13.342;2022-12-31T11:00:13;93185.50;;;12.12;72.26
39613;BME280;25303;48.896;13.342;2022-12-31T11:03:42;93193.53;;;12.00;72.55
39613;BME280;25303;48.896;13.342;2022-12-31T11:07:06;93188.66;;;11.97;72.50
39613;BME280;25303;48.896;13.342;2022-12-31T11:10:19;93172.03;;;11.92;72.13
39613;BME280;25303;48.896;13.342;2022-12-31T11:13:32;93173.56;;;11.68;71.07
39613;BME280;25303;48.896;13.342;2022-12-31T11:16:49;93189.75;;;11.78;70.98
39613;BME280;25303;48.896;13.342;2022-12-31T11:19:45;93192.16;;;11.80;71.76
39613;BME280;25303;48.896;13.342;2022-12-31T11:22:37;93191.16;;;11.73;70.52
39613;BME280;25303;48.896;13.342;2022-12-31T11:25:29;93180.91;;;11.46;71.96
39613;BME280;25303;48.896;13.342;2022-12-31T11:28:42;93205.44;;;11.59;72.25
39613;BME280;25303;48.896;13.342;2022-12-31T11:31:50;93189.66;;;11.62;72.81
39613;BME280;25303;48.896;13.342;2022-12-31T11:34:55;93183.19;;;11.58;72.77
39613;BME280;25303;48.896;13.342;2022-12-31T11:37:45;93197.41;;;11.62;72.94
39613;BME280;25303;48.896;13.342;2022-12-31T11:40:47;93195.44;;;11.55;73.71
39613;BME280;25303;48.896;13.342;2022-12-31T11:43:37;93193.50;;;11.58;73.71
39613;BME280;25303;48.896;13.342;2022-12-31T11:46:42;93181.66;;;11.38;74.05
39613;BME280;25303;48.896;13.342;2022-12-31T11:49:41;93199.41;;;11.42;73.78
39613;BME280;25303;48.896;13.342;2022-12-31T11:52:38;93188.44;;;11.39;73.62
39613;BME280;25303;48.896;13.342;2022-12-31T11:55:37;93190.56;;;11.44;73.04
39613;BME280;25303;48.896;13.342;2022-12-31T11:58:22;93193.31;;;11.51;73.47
39613;BME280;25303;48.896;13.342;2022-12-31T12:01:10;93184.31;;;11.55;73.53
39613;BME280;25303;48.896;13.342;2022-12-31T12:03:56;93195.13;;;11.59;73.44
39613;BME280;25303;48.896;13.342;2022-12-31T12:06:39;93197.53;;;11.60;73.45
39613;BME280;25303;48.896;13.342;2022-12-31T12:09:26;93191.28;;;11.63;73.03
39613;BME280;25303;48.896;13.342;2022-12-31T12:12:10;93201.72;;;11.61;73.33
39613;BME280;25303;48.896;13.342;2022-12-31T12:14:53;93193.69;;;11.64;73.01
39613;BME280;25303;48.896;13.342;2022-12-31T12:17:37;93187.56;;;11.65;72.70
39613;BME280;25303;48.896;13.342;2022-12-31T12:20:28;93186.13;;;11.63;72.57
39613;BME280;25303;48.896;13.342;2022-12-31T12:23:16;93204.47;;;11.60;72.95
39613;BME280;25303;48.896;13.342;2022-12-31T12:25:59;93202.19;;;11.57;72.94
39613;BME280;25303;48.896;13.342;2022-12-31T12:28:44;93201.84;;;11.51;72.60
39613;BME280;25303;48.896;13.342;2022-12-31T12:31:27;93207.28;;;11.40;71.38
39613;BME280;25303;48.896;13.342;2022-12-31T12:34:21;93197.25;;;11.37;72.47
39613;BME280;25303;48.896;13.342;2022-12-31T12:37:27;93202.69;;;11.25;72.81
39613;BME280;25303;48.896;13.342;2022-12-31T12:40:20;93202.50;;;11.19;73.34
39613;BME280;25303;48.896;13.342;2022-12-31T12:43:22;93203.91;;;11.13;73.70
39613;BME280;25303;48.896;13.342;2022-12-31T12:46:06;93201.16;;;11.15;73.69
39613;BME280;25303;48.896;13.342;2022-12-31T12:48:59;93191.69;;;11.15;73.21
39613;BME280;25303;48.896;13.342;2022-12-31T12:51:52;93197.34;;;11.19;73.43
39613;BME280;25303;48.896;13.342;2022-12-31T12:54:55;93178.78;;;11.15;73.47
39613;BME280;25303;48.896;13.342;2022-12-31T12:57:45;93175.59;;;11.21;73.54
39613;BME280;25303;48.896;13.342;2022-12-31T13:00:32;93177.41;;;11.29;73.08
39613;BME280;25303;48.896;13.342;2022-12-31T13:03:43;93189.41;;;11.47;73.25
39613;BME280;25303;48.896;13.342;2022-12-31T13:07:05;93194.94;;;11.52;72.90
39613;BME280;25303;48.896;13.342;2022-12-31T13:10:11;93186.91;;;11.55;71.84
39613;BME280;25303;48.896;13.342;2022-12-31T13:13:03;93181.94;;;11.62;72.49
39613;BME280;25303;48.896;13.342;2022-12-31T13:16:12;93178.38;;;11.63;71.75
39613;BME280;25303;48.896;13.342;2022-12-31T13:19:03;93172.94;;;11.74;71.60
39613;BME280;25303;48.896;13.342;2022-12-31T13:21:53;93175.22;;;11.85;71.67
39613;BME280;25303;48.896;13.342;2022-12-31T13:24:48;93174.78;;;11.90;70.64
39613;BME280;25303;48.896;13.342;2022-12-31T13:27:37;93173.88;;;11.99;70.54
39613;BME280;25303;48.896;13.342;2022-12-31T13:30:24;93176.72;;;11.96;70.44
39613;BME280;25303;48.896;13.342;2022-12-31T13:33:14;93177.25;;;12.00;70.34
39613;BME280;25303;48.896;13.342;2022-12-31T13:36:01;93176.72;;;11.96;70.58
39613;BME280;25303;48.896;13.342;2022-12-31T13:38:47;93181.72;;;11.90;70.29
39613;BME280;25303;48.896;13.342;2022-12-31T13:41:36;93174.28;;;11.86;70.25
39613;BME280;25303;48.896;13.342;2022-12-31T13:44:26;93184.59;;;11.86;69.98
39613;BME280;25303;48.896;13.342;2022-12-31T13:47:13;93180.09;;;11.89;69.97
39613;BME280;25303;48.896;13.342;2022-12-31T13:50:01;93192.19;;;11.96;69.81
39613;BME280;25303;48.896;13.342;2022-12-31T13:52:52;93193.53;;;12.00;69.65
39613;BME280;25303;48.896;13.342;2022-12-31T13:55:39;93184.53;;;12.05;69.54
39613;BME280;25303;48.896;13.342;2022-12-31T13:58:29;93193.56;;;12.09;69.15
39613;BME280;25303;48.896;13.342;2022-12-31T14:01:17;93202.59;;;12.13;69.20
39613;BME280;25303;48.896;13.342;2022-12-31T14:04:07;93199.06;;;12.14;68.89
39613;BME280;25303;48.896;13.342;2022-12-31T14:06:57;93209.38;;;12.14;69.18
39613;BME280;25303;48.896;13.342;2022-12-31T14:09:40;93214.53;;;12.14;69.38
39613;BME280;25303;48.896;13.342;2022-12-31T14:12:32;93215.69;;;12.11;69.37
39613;BME280;25303;48.896;13.342;2022-12-31T14:15:23;93216.63;;;12.10;69.69
39613;BME280;25303;48.896;13.342;2022-12-31T14:18:16;93217.78;;;12.08;69.34
39613;BME280;25303;48.896;13.342;2022-12-31T14:21:08;93211.97;;;12.06;69.03
39613;BME280;25303;48.896;13.342;2022-12-31T14:23:59;93202.72;;;12.03;68.69
39613;BME280;25303;48.896;13.342;2022-12-31T14:26:49;93198.19;;;11.97;68.55
39613;BME280;25303;48.896;13.342;2022-12-31T14:29:38;93206.38;;;11.92;68.45
39613;BME280;25303;48.896;13.342;2022-12-31T14:39:03;93211.63;;;11.74;67.28
39613;BME280;25303;48.896;13.342;2022-12-31T14:41:58;93219.53;;;11.73;67.71
39613;BME280;25303;48.896;13.342;2022-12-31T14:44:58;93220.50;;;11.72;67.86
39613;BME280;25303;48.896;13.342;2022-12-31T14:47:50;93227.22;;;11.64;68.19
39613;BME280;25303;48.896;13.342;2022-12-31T14:50:35;93240.22;;;11.54;68.42
39613;BME280;25303;48.896;13.342;2022-12-31T14:53:23;93240.50;;;11.43;68.56
39613;BME280;25303;48.896;13.342;2022-12-31T14:56:36;93237.72;;;11.36;68.43
39613;BME280;25303;48.896;13.342;2022-12-31T14:59:26;93240.69;;;11.23;68.40
39613;BME280;25303;48.896;13.342;2022-12-31T15:02:24;93236.00;;;11.19;68.17
39613;BME280;25303;48.896;13.342;2022-12-31T15:05:15;93229.88;;;11.20;68.27
39613;BME280;25303;48.896;13.342;2022-12-31T15:08:11;93227.75;;;11.15;68.40
39613;BME280;25303;48.896;13.342;2022-12-31T15:11:31;93227.03;;;11.05;68.20
39613;BME280;25303;48.896;13.342;2022-12-31T15:14:33;93223.13;;;11.01;68.36
39613;BME280;25303;48.896;13.342;2022-12-31T15:17:26;93221.25;;;10.85;68.44
39613;BME280;25303;48.896;13.342;2022-12-31T15:20:30;93223.41;;;10.71;68.50
39613;BME280;25303;48.896;13.342;2022-12-31T15:23:21;93230.97;;;10.73;68.51